Time,TemperatureF,DewpointF,PressureIn,WindDirection,WindDirectionDegrees,WindSpeedMPH,WindSpeedGustMPH,Humidity,HourlyPrecipIn,Conditions,Clouds,dailyrainin,SoftwareType,DateUTC
2013-02-17 00:02:00,15.9,8.2,30.06,WNW,292,8.0,14.0,71,0.00,,,-99.99,WeatherLink 5.7,2013-02-17 05:02:00,
2013-02-17 00:11:00,15.5,7.8,30.07,WNW,292,7.0,12.0,71,0.00,,,-99.99,WeatherLink 5.7,2013-02-17 05:11:00,
2013-02-17 00:21:00,15.0,7.3,30.06,WNW,292,7.0,11.0,71,0.00,,,-99.99,WeatherLink 5.7,2013-02-17 05:21:00,
2013-02-17 00:31:00,14.6,6.9,30.06,WNW,292,6.0,11.0,71,0.00,,,-99.99,WeatherLink 5.7,2013-02-17 05:31:00,
2013-02-17 00:41:00,14.1,6.7,30.06,WNW,292,6.0,10.0,72,0.00,,,-99.99,WeatherLink 5.7,2013-02-17 05:41:00,
2013-02-17 00:51:00,13.8,6.4,30.07,WNW,292,6.0,9.0,72,0.00,,,-99.99,WeatherLink 5.7,2013-02-17 05:51:00,
2013-02-17 01:01:00,13.8,6.7,30.07,WNW,292,6.0,9.0,73,0.00,,,-99.99,WeatherLink 5.7,2013-02-17 06:01:00,
2013-02-17 01:11:00,14.3,7.2,30.07,WNW,292,7.0,10.0,73,0.00,,,-99.99,WeatherLink 5.7,2013-02-17 06:11:00,
2013-02-17 01:21:00,14.4,7.6,30.07,WNW,292,7.0,11.0,74,0.00,,,-99.99,WeatherLink 5.7,2013-02-17 06:21:00,
2013-02-17 01:31:00,14.3,7.2,30.07,WNW,292,7.0,10.0,73,0.00,,,-99.99,WeatherLink 5.7,2013-02-17 06:31:00,
2013-02-17 01:41:00,14.3,7.5,30.07,WNW,292,7.0,10.0,74,0.00,,,-99.99,WeatherLink 5.7,2013-02-17 06:41:00,
2013-02-17 01:51:00,14.1,7.3,30.07,WNW,292,5.0,9.0,74,0.00,,,-99.99,WeatherLink 5.7,2013-02-17 06:51:00,
2013-02-17 02:01:00,13.8,6.7,30.07,WNW,292,5.0,7.0,73,0.00,,,-99.99,WeatherLink 5.7,2013-02-17 07:01:00,
2013-02-17 02:11:00,13.6,6.8,30.08,WNW,292,4.0,7.0,74,0.00,,,-99.99,WeatherLink 5.7,2013-02-17 07:11:00,
2013-02-17 02:21:00,13.4,6.7,30.07,WNW,292,4.0,7.0,74,0.00,,,-99.99,WeatherLink 5.7,2013-02-17 07:21:00,
2013-02-17 02:31:00,13.4,7.0,30.08,WNW,292,3.0,6.0,75,0.00,,,-99.99,WeatherLink 5.7,2013-02-17 07:31:00,
2013-02-17 02:41:00,13.3,6.9,30.07,WNW,292,3.0,5.0,75,0.00,,,-99.99,WeatherLink 5.7,2013-02-17 07:41:00,
2013-02-17 02:51:00,13.1,6.4,30.08,WNW,292,3.0,5.0,74,0.00,,,-99.99,WeatherLink 5.7,2013-02-17 07:51:00,
2013-02-17 03:01:00,12.7,6.0,30.08,WNW,292,3.0,5.0,74,0.00,,,-99.99,WeatherLink 5.7,2013-02-17 08:01:00,
2013-02-17 03:11:00,12.3,5.6,30.08,WNW,292,3.0,5.0,74,0.00,,,-99.99,WeatherLink 5.7,2013-02-17 08:11:00,
2013-02-17 03:21:00,11.9,5.2,30.08,WNW,292,2.0,4.0,74,0.00,,,-99.99,WeatherLink 5.7,2013-02-17 08:21:00,
2013-02-17 03:31:00,11.6,4.9,30.08,WNW,292,3.0,6.0,74,0.00,,,-99.99,WeatherLink 5.7,2013-02-17 08:31:00,
2013-02-17 03:41:00,11.3,4.6,30.08,WNW,292,3.0,5.0,74,0.00,,,-99.99,WeatherLink 5.7,2013-02-17 08:41:00,
2013-02-17 03:51:00,11.1,4.7,30.09,WNW,292,3.0,5.0,75,0.00,,,-99.99,WeatherLink 5.7,2013-02-17 08:51:00,
2013-02-17 04:01:00,11.0,4.6,30.08,WNW,292,3.0,4.0,75,0.00,,,-99.99,WeatherLink 5.7,2013-02-17 09:01:00,
2013-02-17 04:11:00,10.8,4.4,30.09,WNW,292,2.0,5.0,75,0.00,,,-99.99,WeatherLink 5.7,2013-02-17 09:11:00,
2013-02-17 04:22:00,10.8,4.4,30.09,NNW,337,3.0,5.0,75,0.00,,,-99.99,WeatherLink 5.7,2013-02-17 09:22:00,
2013-02-17 04:31:00,10.8,4.4,30.09,NNW,337,2.0,4.0,75,0.00,,,-99.99,WeatherLink 5.7,2013-02-17 09:31:00,
2013-02-17 04:42:00,11.0,4.9,30.09,NNW,337,2.0,5.0,76,0.00,,,-99.99,WeatherLink 5.7,2013-02-17 09:42:00,
2013-02-17 04:51:00,11.3,4.9,30.10,NNW,337,2.0,5.0,75,0.00,,,-99.99,WeatherLink 5.7,2013-02-17 09:51:00,
2013-02-17 05:01:00,11.3,4.9,30.10,NNW,337,2.0,5.0,75,0.00,,,-99.99,WeatherLink 5.7,2013-02-17 10:01:00,
2013-02-17 05:11:00,10.9,4.2,30.11,NNW,337,2.0,4.0,74,0.00,,,-99.99,WeatherLink 5.7,2013-02-17 10:11:00,
2013-02-17 05:21:00,10.6,4.2,30.11,NNW,337,3.0,7.0,75,0.00,,,-99.99,WeatherLink 5.7,2013-02-17 10:21:00,
2013-02-17 05:31:00,11.0,4.3,30.11,NNW,337,3.0,6.0,74,0.00,,,-99.99,WeatherLink 5.7,2013-02-17 10:31:00,
2013-02-17 05:41:00,11.3,4.3,30.11,NNW,337,3.0,7.0,73,0.00,,,-99.99,WeatherLink 5.7,2013-02-17 10:41:00,
2013-02-17 05:51:00,11.3,4.3,30.12,NNW,337,3.0,6.0,73,0.00,,,-99.99,WeatherLink 5.7,2013-02-17 10:51:00,
2013-02-17 06:01:00,11.3,4.0,30.12,NNW,337,3.0,8.0,72,0.00,,,-99.99,WeatherLink 5.7,2013-02-17 11:01:00,
2013-02-17 06:11:00,11.3,3.7,30.13,NNW,337,4.0,8.0,71,0.00,,,-99.99,WeatherLink 5.7,2013-02-17 11:11:00,
2013-02-17 06:21:00,11.1,3.2,30.13,NNW,337,3.0,9.0,70,0.00,,,-99.99,WeatherLink 5.7,2013-02-17 11:21:00,
2013-02-17 06:31:00,10.9,3.0,30.14,NNW,337,2.0,6.0,70,0.00,,,-99.99,WeatherLink 5.7,2013-02-17 11:31:00,
2013-02-17 06:41:00,10.7,2.2,30.14,NNW,337,3.0,8.0,68,0.00,,,-99.99,WeatherLink 5.7,2013-02-17 11:41:00,
2013-02-17 06:51:00,10.5,2.0,30.14,NNW,337,2.0,5.0,68,0.00,,,-99.99,WeatherLink 5.7,2013-02-17 11:51:00,
2013-02-17 07:01:00,10.2,1.7,30.14,NNW,337,2.0,5.0,68,0.00,,,-99.99,WeatherLink 5.7,2013-02-17 12:01:00,
2013-02-17 07:11:00,9.9,1.1,30.14,NNW,337,1.0,4.0,67,0.00,,,-99.99,WeatherLink 5.7,2013-02-17 12:11:00,
2013-02-17 07:21:00,9.5,0.7,30.15,NNW,337,2.0,3.0,67,0.00,,,-99.99,WeatherLink 5.7,2013-02-17 12:21:00,
2013-02-17 07:31:00,9.0,0.3,30.15,NNW,337,2.0,4.0,67,0.00,,,-99.99,WeatherLink 5.7,2013-02-17 12:31:00,
2013-02-17 07:41:00,8.6,-0.1,30.16,NNW,337,2.0,4.0,67,0.00,,,-99.99,WeatherLink 5.7,2013-02-17 12:41:00,
2013-02-17 07:51:00,8.3,-0.4,30.16,NNW,337,2.0,4.0,67,0.00,,,-99.99,WeatherLink 5.7,2013-02-17 12:51:00,
2013-02-17 08:01:00,8.1,-0.3,30.16,NNW,337,2.0,4.0,68,0.00,,,-99.99,WeatherLink 5.7,2013-02-17 13:01:00,
2013-02-17 08:11:00,8.1,0.3,30.17,NNW,337,2.0,4.0,70,0.00,,,-99.99,WeatherLink 5.7,2013-02-17 13:11:00,
2013-02-17 08:20:00,8.6,0.8,30.17,NNW,337,2.0,5.0,70,0.00,,,-99.99,WeatherLink 5.7,2013-02-17 13:20:00,
2013-02-17 08:31:00,9.4,1.9,30.17,NW,315,3.0,6.0,71,0.00,,,-99.99,WeatherLink 5.7,2013-02-17 13:31:00,
2013-02-17 08:41:00,10.5,2.9,30.17,WNW,292,4.0,6.0,71,0.00,,,-99.99,WeatherLink 5.7,2013-02-17 13:41:00,
2013-02-17 08:51:00,12.0,4.1,30.17,WNW,292,4.0,7.0,70,0.00,,,-99.99,WeatherLink 5.7,2013-02-17 13:51:00,
2013-02-17 09:01:00,13.7,4.8,30.17,NW,315,5.0,9.0,67,0.00,,,-99.99,WeatherLink 5.7,2013-02-17 14:01:00,
2013-02-17 09:11:00,15.1,5.4,30.17,NW,315,6.0,11.0,65,0.00,,,-99.99,WeatherLink 5.7,2013-02-17 14:11:00,
2013-02-17 09:21:00,16.3,5.5,30.17,WNW,292,6.0,10.0,62,0.00,,,-99.99,WeatherLink 5.7,2013-02-17 14:21:00,
2013-02-17 09:31:00,17.6,6.1,30.17,WNW,292,6.0,11.0,60,0.00,,,-99.99,WeatherLink 5.7,2013-02-17 14:31:00,
2013-02-17 09:41:00,18.6,6.3,30.18,WNW,292,7.0,11.0,58,0.00,,,-99.99,WeatherLink 5.7,2013-02-17 14:41:00,
2013-02-17 09:51:00,19.5,6.7,30.18,WNW,292,6.0,11.0,57,0.00,,,-99.99,WeatherLink 5.7,2013-02-17 14:51:00,
2013-02-17 10:01:00,20.3,7.1,30.18,WNW,292,6.0,10.0,56,0.00,,,-99.99,WeatherLink 5.7,2013-02-17 15:01:00,
2013-02-17 10:11:00,20.9,7.6,30.18,WNW,292,7.0,11.0,56,0.00,,,-99.99,WeatherLink 5.7,2013-02-17 15:11:00,
2013-02-17 10:21:00,21.4,7.7,30.18,WNW,292,7.0,11.0,55,0.00,,,-99.99,WeatherLink 5.7,2013-02-17 15:21:00,
2013-02-17 10:31:00,22.0,7.9,30.18,WNW,292,7.0,12.0,54,0.00,,,-99.99,WeatherLink 5.7,2013-02-17 15:31:00,
2013-02-17 10:41:00,22.6,7.6,30.19,NW,315,6.0,12.0,52,0.00,,,-99.99,WeatherLink 5.7,2013-02-17 15:41:00,
2013-02-17 10:51:00,23.2,6.8,30.19,WNW,292,7.0,13.0,49,0.00,,,-99.99,WeatherLink 5.7,2013-02-17 15:51:00,
2013-02-17 11:01:00,23.7,6.8,30.19,NW,315,7.0,14.0,48,0.00,,,-99.99,WeatherLink 5.7,2013-02-17 16:01:00,
2013-02-17 11:11:00,24.5,6.6,30.19,NNW,337,8.0,15.0,46,0.00,,,-99.99,WeatherLink 5.7,2013-02-17 16:11:00,
2013-02-17 11:21:00,24.8,6.9,30.20,NW,315,8.0,15.0,46,0.00,,,-99.99,WeatherLink 5.7,2013-02-17 16:21:00,
2013-02-17 11:31:00,24.6,6.7,30.20,NW,315,10.0,17.0,46,0.00,,,-99.99,WeatherLink 5.7,2013-02-17 16:31:00,
2013-02-17 11:41:00,24.4,6.6,30.20,NW,315,9.0,15.0,46,0.00,,,-99.99,WeatherLink 5.7,2013-02-17 16:41:00,
2013-02-17 11:51:00,24.6,5.3,30.20,NNW,337,11.0,19.0,43,0.00,,,-99.99,WeatherLink 5.7,2013-02-17 16:51:00,
2013-02-17 12:01:00,24.6,4.7,30.20,NNW,337,10.0,19.0,42,0.00,,,-99.99,WeatherLink 5.7,2013-02-17 17:01:00,
2013-02-17 12:11:00,24.8,5.4,30.20,NNW,337,10.0,18.0,43,0.00,,,-99.99,WeatherLink 5.7,2013-02-17 17:11:00,
2013-02-17 12:21:00,25.0,5.1,30.19,NNW,337,11.0,20.0,42,0.00,,,-99.99,WeatherLink 5.7,2013-02-17 17:21:00,
2013-02-17 12:31:00,25.1,4.7,30.19,NNW,337,12.0,21.0,41,0.00,,,-99.99,WeatherLink 5.7,2013-02-17 17:31:00,
2013-02-17 12:41:00,25.2,4.2,30.19,NNW,337,12.0,18.0,40,0.00,,,-99.99,WeatherLink 5.7,2013-02-17 17:41:00,
2013-02-17 12:51:00,25.5,5.0,30.19,NNW,337,10.0,17.0,41,0.00,,,-99.99,WeatherLink 5.7,2013-02-17 17:51:00,
2013-02-17 13:01:00,25.6,5.1,30.18,NW,315,9.0,16.0,41,0.00,,,-99.99,WeatherLink 5.7,2013-02-17 18:01:00,
2013-02-17 13:11:00,25.9,5.4,30.18,NW,315,10.0,19.0,41,0.00,,,-99.99,WeatherLink 5.7,2013-02-17 18:11:00,
2013-02-17 13:21:00,25.7,4.7,30.18,NNW,337,11.0,19.0,40,0.00,,,-99.99,WeatherLink 5.7,2013-02-17 18:21:00,
2013-02-17 13:31:00,25.4,3.8,30.18,NNW,337,9.0,16.0,39,0.00,,,-99.99,WeatherLink 5.7,2013-02-17 18:31:00,
2013-02-17 13:42:00,23.9,3.6,30.18,NNW,337,10.0,15.0,41,0.00,,,-99.99,WeatherLink 5.7,2013-02-17 18:42:00,
2013-02-17 13:51:00,23.1,3.9,30.18,NNW,337,7.0,12.0,43,0.00,,,-99.99,WeatherLink 5.7,2013-02-17 18:51:00,
2013-02-17 14:01:00,23.3,4.6,30.18,NNW,337,9.0,17.0,44,0.00,,,-99.99,WeatherLink 5.7,2013-02-17 19:01:00,
2013-02-17 14:11:00,23.4,4.7,30.18,NW,315,10.0,17.0,44,0.00,,,-99.99,WeatherLink 5.7,2013-02-17 19:11:00,
2013-02-17 14:21:00,23.3,4.1,30.18,NNW,337,8.0,16.0,43,0.00,,,-99.99,WeatherLink 5.7,2013-02-17 19:21:00,
2013-02-17 14:31:00,23.1,2.9,30.18,NNW,337,9.0,14.0,41,0.00,,,-99.99,WeatherLink 5.7,2013-02-17 19:31:00,
2013-02-17 14:41:00,23.0,3.3,30.19,NNW,337,7.0,17.0,42,0.00,,,-99.99,WeatherLink 5.7,2013-02-17 19:41:00,
2013-02-17 14:51:00,23.3,3.6,30.18,NNW,337,9.0,15.0,42,0.00,,,-99.99,WeatherLink 5.7,2013-02-17 19:51:00,
2013-02-17 15:01:00,23.4,4.7,30.18,NW,315,7.0,15.0,44,0.00,,,-99.99,WeatherLink 5.7,2013-02-17 20:01:00,
2013-02-17 15:11:00,23.5,3.7,30.18,NNW,337,8.0,16.0,42,0.00,,,-99.99,WeatherLink 5.7,2013-02-17 20:11:00,
2013-02-17 15:21:00,23.4,4.2,30.18,NNW,337,7.0,12.0,43,0.00,,,-99.99,WeatherLink 5.7,2013-02-17 20:21:00,
2013-02-17 15:31:00,23.9,4.6,30.18,NW,315,8.0,14.0,43,0.00,,,-99.99,WeatherLink 5.7,2013-02-17 20:31:00,
2013-02-17 15:41:00,24.5,3.6,30.18,NNW,337,8.0,14.0,40,0.00,,,-99.99,WeatherLink 5.7,2013-02-17 20:41:00,
2013-02-17 15:51:00,24.4,4.0,30.18,NNW,337,7.0,13.0,41,0.00,,,-99.99,WeatherLink 5.7,2013-02-17 20:51:00,
2013-02-17 16:01:00,24.0,4.2,30.19,NNW,337,8.0,13.0,42,0.00,,,-99.99,WeatherLink 5.7,2013-02-17 21:01:00,
2013-02-17 16:11:00,24.0,4.2,30.19,NW,315,7.0,14.0,42,0.00,,,-99.99,WeatherLink 5.7,2013-02-17 21:11:00,
2013-02-17 16:21:00,23.9,4.6,30.19,NW,315,8.0,14.0,43,0.00,,,-99.99,WeatherLink 5.7,2013-02-17 21:21:00,
2013-02-17 16:31:00,23.6,3.8,30.19,WNW,292,7.0,14.0,42,0.00,,,-99.99,WeatherLink 5.7,2013-02-17 21:31:00,
2013-02-17 16:41:00,23.5,3.7,30.19,NW,315,6.0,10.0,42,0.00,,,-99.99,WeatherLink 5.7,2013-02-17 21:41:00,
2013-02-17 16:51:00,23.5,2.7,30.19,NNW,337,6.0,11.0,40,0.00,,,-99.99,WeatherLink 5.7,2013-02-17 21:51:00,
2013-02-17 17:01:00,23.4,3.6,30.19,NNW,337,5.0,11.0,42,0.00,,,-99.99,WeatherLink 5.7,2013-02-17 22:01:00,
2013-02-17 17:11:00,23.2,3.5,30.19,NW,315,4.0,10.0,42,0.00,,,-99.99,WeatherLink 5.7,2013-02-17 22:11:00,
2013-02-17 17:21:00,23.1,3.9,30.20,WNW,292,4.0,9.0,43,0.00,,,-99.99,WeatherLink 5.7,2013-02-17 22:21:00,
2013-02-17 17:31:00,22.8,3.6,30.19,WNW,292,3.0,7.0,43,0.00,,,-99.99,WeatherLink 5.7,2013-02-17 22:31:00,
2013-02-17 17:41:00,22.5,3.8,30.20,NW,315,3.0,6.0,44,0.00,,,-99.99,WeatherLink 5.7,2013-02-17 22:41:00,
2013-02-17 17:51:00,22.2,4.5,30.20,NW,315,1.0,4.0,46,0.00,,,-99.99,WeatherLink 5.7,2013-02-17 22:51:00,
2013-02-17 18:01:00,22.0,4.3,30.20,NW,315,2.0,5.0,46,0.00,,,-99.99,WeatherLink 5.7,2013-02-17 23:01:00,
2013-02-17 18:11:00,21.8,4.6,30.20,NW,315,0.0,2.0,47,0.00,,,-99.99,WeatherLink 5.7,2013-02-17 23:11:00,
2013-02-17 18:21:00,21.4,4.3,30.20,North,-999,0.0,0.0,47,0.00,,,-99.99,WeatherLink 5.7,2013-02-17 23:21:00,
2013-02-17 18:31:00,20.8,4.2,30.20,North,-999,0.0,0.0,48,0.00,,,-99.99,WeatherLink 5.7,2013-02-17 23:31:00,
2013-02-17 18:41:00,20.0,3.0,30.20,North,-999,0.0,0.0,47,0.00,,,-99.99,WeatherLink 5.7,2013-02-17 23:41:00,
2013-02-17 18:51:00,19.2,3.1,30.21,North,-999,0.0,0.0,49,0.00,,,-99.99,WeatherLink 5.7,2013-02-17 23:51:00,
2013-02-17 19:01:00,18.8,3.6,30.20,North,-999,0.0,0.0,51,0.00,,,-99.99,WeatherLink 5.7,2013-02-18 00:01:00,
2013-02-17 19:11:00,18.5,3.4,30.21,North,-999,0.0,0.0,51,0.00,,,-99.99,WeatherLink 5.7,2013-02-18 00:11:00,
2013-02-17 19:21:00,18.1,3.0,30.20,North,-999,0.0,0.0,51,0.00,,,-99.99,WeatherLink 5.7,2013-02-18 00:21:00,
2013-02-17 19:31:00,17.7,3.0,30.21,North,-999,0.0,0.0,52,0.00,,,-99.99,WeatherLink 5.7,2013-02-18 00:31:00,
2013-02-17 19:41:00,17.4,4.4,30.20,NW,315,0.0,1.0,56,0.00,,,-99.99,WeatherLink 5.7,2013-02-18 00:41:00,
2013-02-17 19:51:00,17.1,4.8,30.20,NW,315,1.0,3.0,58,0.00,,,-99.99,WeatherLink 5.7,2013-02-18 00:51:00,
2013-02-17 20:01:00,16.8,4.9,30.20,NW,315,1.0,3.0,59,0.00,,,-99.99,WeatherLink 5.7,2013-02-18 01:01:00,
2013-02-17 20:11:00,16.5,4.7,30.20,NW,315,0.0,2.0,59,0.00,,,-99.99,WeatherLink 5.7,2013-02-18 01:11:00,
2013-02-17 20:21:00,16.2,4.4,30.20,NW,315,1.0,2.0,59,0.00,,,-99.99,WeatherLink 5.7,2013-02-18 01:21:00,
2013-02-17 20:31:00,16.0,4.5,30.20,NW,315,0.0,2.0,60,0.00,,,-99.99,WeatherLink 5.7,2013-02-18 01:31:00,
2013-02-17 20:41:00,15.8,4.0,30.21,East,90,1.0,3.0,59,0.00,,,-99.99,WeatherLink 5.7,2013-02-18 01:41:00,
2013-02-17 20:51:00,15.7,4.3,30.21,East,90,0.0,2.0,60,0.00,,,-99.99,WeatherLink 5.7,2013-02-18 01:51:00,
2013-02-17 21:01:00,15.7,4.3,30.21,East,90,0.0,2.0,60,0.00,,,-99.99,WeatherLink 5.7,2013-02-18 02:01:00,
2013-02-17 21:11:00,15.6,4.2,30.21,East,90,1.0,2.0,60,0.00,,,-99.99,WeatherLink 5.7,2013-02-18 02:11:00,
2013-02-17 21:22:00,15.4,4.3,30.22,East,90,1.0,3.0,61,0.00,,,-99.99,WeatherLink 5.7,2013-02-18 02:22:00,
2013-02-17 21:31:00,15.1,4.1,30.22,East,90,1.0,3.0,61,0.00,,,-99.99,WeatherLink 5.7,2013-02-18 02:31:00,
2013-02-17 21:41:00,14.9,4.2,30.22,East,90,1.0,3.0,62,0.00,,,-99.99,WeatherLink 5.7,2013-02-18 02:41:00,
2013-02-17 21:51:00,14.8,4.1,30.22,East,90,1.0,3.0,62,0.00,,,-99.99,WeatherLink 5.7,2013-02-18 02:51:00,
2013-02-17 22:01:00,14.7,4.4,30.22,East,90,1.0,3.0,63,0.00,,,-99.99,WeatherLink 5.7,2013-02-18 03:01:00,
2013-02-17 22:11:00,14.5,4.2,30.21,East,90,1.0,3.0,63,0.00,,,-99.99,WeatherLink 5.7,2013-02-18 03:11:00,
2013-02-17 22:21:00,14.3,4.3,30.21,East,90,1.0,3.0,64,0.00,,,-99.99,WeatherLink 5.7,2013-02-18 03:21:00,
2013-02-17 22:31:00,14.2,4.6,30.21,East,90,1.0,2.0,65,0.00,,,-99.99,WeatherLink 5.7,2013-02-18 03:31:00,
2013-02-17 22:41:00,14.2,4.6,30.21,East,90,0.0,2.0,65,0.00,,,-99.99,WeatherLink 5.7,2013-02-18 03:41:00,
2013-02-17 22:51:00,14.1,4.5,30.21,East,90,0.0,2.0,65,0.00,,,-99.99,WeatherLink 5.7,2013-02-18 03:51:00,
2013-02-17 23:01:00,13.9,4.3,30.21,East,90,0.0,2.0,65,0.00,,,-99.99,WeatherLink 5.7,2013-02-18 04:01:00,
2013-02-17 23:11:00,13.8,4.2,30.21,East,90,2.0,3.0,65,0.00,,,-99.99,WeatherLink 5.7,2013-02-18 04:11:00,
2013-02-17 23:21:00,13.6,4.3,30.21,East,90,2.0,3.0,66,0.00,,,-99.99,WeatherLink 5.7,2013-02-18 04:21:00,
2013-02-17 23:31:00,13.4,4.5,30.21,East,90,2.0,3.0,67,0.00,,,-99.99,WeatherLink 5.7,2013-02-18 04:31:00,
2013-02-17 23:41:00,13.7,4.8,30.21,East,90,0.0,2.0,67,0.00,,,-99.99,WeatherLink 5.7,2013-02-18 04:41:00,
2013-02-17 23:51:00,13.7,4.8,30.22,East,90,1.0,2.0,67,0.00,,,-99.99,WeatherLink 5.7,2013-02-18 04:51:00,